createdAt,value
2024-01-29T00:00:02.577Z,11.48
2024-01-29T00:02:36.701Z,10.30
2024-01-29T00:05:04.739Z,10.65
2024-01-29T00:07:32.549Z,8.75
2024-01-29T00:10:01.976Z,9.70
2024-01-29T00:12:30.025Z,12.88
2024-01-29T00:14:57.941Z,9.50
2024-01-29T00:17:25.733Z,8.98
2024-01-29T00:19:53.854Z,10.40
2024-01-29T00:22:21.750Z,11.85
2024-01-29T00:24:49.597Z,10.32
2024-01-29T00:27:19.891Z,7.97
2024-01-29T00:29:47.861Z,9.07
2024-01-29T00:32:15.724Z,11.20
2024-01-29T00:34:44.051Z,13.57
2024-01-29T00:37:11.926Z,11.13
2024-01-29T00:39:39.825Z,11.63
2024-01-29T00:42:07.797Z,11.48
2024-01-29T00:44:37.017Z,12.30
2024-01-29T00:47:05.752Z,11.57
2024-01-29T00:49:33.808Z,10.55
2024-01-29T00:52:03.460Z,11.68
2024-01-29T00:54:31.447Z,12.77
2024-01-29T00:56:59.192Z,11.30
2024-01-29T00:59:27.001Z,14.20
2024-01-29T01:01:56.346Z,9.40
2024-01-29T01:04:24.247Z,13.15
2024-01-29T01:06:52.124Z,11.98
2024-01-29T01:09:20.163Z,14.00
2024-01-29T01:11:47.953Z,13.75
2024-01-29T01:14:14.766Z,12.52
2024-01-29T01:16:42.646Z,11.80
2024-01-29T01:19:11.969Z,13.10
2024-01-29T01:21:39.965Z,11.15
2024-01-29T01:24:08.259Z,10.85
2024-01-29T01:26:36.423Z,12.45
2024-01-29T01:29:05.504Z,11.77
2024-01-29T01:31:33.449Z,14.60
2024-01-29T01:34:01.456Z,11.48
2024-01-29T01:36:31.271Z,10.73
2024-01-29T01:38:59.092Z,13.75
2024-01-29T01:41:26.986Z,9.50
2024-01-29T01:43:54.862Z,10.73
2024-01-29T01:46:24.318Z,11.32
2024-01-29T01:48:53.175Z,9.90
2024-01-29T01:51:21.801Z,15.27
2024-01-29T01:53:53.675Z,13.40
2024-01-29T01:56:22.438Z,12.32
2024-01-29T01:58:51.130Z,11.40
2024-01-29T02:01:19.066Z,11.77
2024-01-29T02:03:47.044Z,12.00
2024-01-29T02:06:14.899Z,10.73
2024-01-29T02:08:43.442Z,9.65
2024-01-29T02:11:12.692Z,17.70
2024-01-29T02:13:40.534Z,11.50
2024-01-29T02:16:08.550Z,13.18
2024-01-29T02:18:36.763Z,14.38
2024-01-29T02:21:05.244Z,11.63
2024-01-29T02:23:34.436Z,11.80
2024-01-29T02:26:02.232Z,12.70
2024-01-29T02:28:30.076Z,9.85
2024-01-29T02:30:58.022Z,13.75
2024-01-29T02:33:25.951Z,14.32
2024-01-29T02:35:53.792Z,12.10
2024-01-29T02:38:21.529Z,14.68
2024-01-29T02:40:50.773Z,12.80
2024-01-29T02:43:18.987Z,12.20
2024-01-29T02:45:48.284Z,17.52
2024-01-29T02:48:16.694Z,14.23
2024-01-29T02:50:44.633Z,12.18
2024-01-29T02:53:12.465Z,11.82
2024-01-29T02:55:40.267Z,16.00
2024-01-29T02:58:09.516Z,10.13
2024-01-29T03:00:37.536Z,13.43
2024-01-29T03:03:06.082Z,11.32
2024-01-29T03:05:34.084Z,14.18
2024-01-29T03:08:01.954Z,12.85
2024-01-29T03:10:29.754Z,13.70
2024-01-29T03:12:59.128Z,14.82
2024-01-29T03:15:28.483Z,11.85
2024-01-29T03:17:56.289Z,11.05
2024-01-29T03:20:24.440Z,10.63
2024-01-29T03:22:52.329Z,12.00
2024-01-29T03:25:20.203Z,11.52
2024-01-29T03:27:48.037Z,13.70
2024-01-29T03:30:16.232Z,14.02
2024-01-29T03:32:45.390Z,10.75
2024-01-29T03:35:13.325Z,11.77
2024-01-29T03:37:41.107Z,14.13
2024-01-29T03:40:10.458Z,12.05
2024-01-29T03:42:38.411Z,12.43
2024-01-29T03:45:07.245Z,9.43
2024-01-29T03:47:35.056Z,11.23
2024-01-29T03:50:06.926Z,13.18
2024-01-29T03:52:34.893Z,13.50
2024-01-29T03:55:02.831Z,13.25
2024-01-29T03:57:30.693Z,10.55
2024-01-29T03:59:58.689Z,12.68
2024-01-29T04:02:26.432Z,13.27
2024-01-29T04:04:54.481Z,12.23
2024-01-29T04:07:23.799Z,10.68
2024-01-29T04:09:51.731Z,12.38
2024-01-29T04:12:19.711Z,12.90
2024-01-29T04:14:47.532Z,11.43
2024-01-29T04:17:15.308Z,13.70
2024-01-29T04:19:43.149Z,13.90
2024-01-29T04:22:11.065Z,13.50
2024-01-29T04:24:40.287Z,16.42
2024-01-29T04:27:08.047Z,14.23
2024-01-29T04:29:35.915Z,12.70
2024-01-29T04:32:03.714Z,12.95
2024-01-29T04:34:31.617Z,13.07
2024-01-29T04:36:59.549Z,14.60
2024-01-29T04:39:27.394Z,12.90
2024-01-29T04:41:56.621Z,13.88
2024-01-29T04:44:26.147Z,15.95
2024-01-29T04:46:53.919Z,16.65
2024-01-29T04:49:22.004Z,15.20
2024-01-29T04:51:49.902Z,17.60
2024-01-29T04:54:17.696Z,14.88
2024-01-29T04:56:45.556Z,11.93
2024-01-29T04:59:14.754Z,12.55
2024-01-29T05:01:42.777Z,16.23
2024-01-29T05:04:10.748Z,16.52
2024-01-29T05:06:38.953Z,11.90
2024-01-29T05:09:06.862Z,20.35
2024-01-29T05:11:34.780Z,31.17
2024-01-29T05:14:02.579Z,26.73
2024-01-29T05:16:33.874Z,23.00
2024-01-29T05:19:01.887Z,13.32
2024-01-29T05:21:29.866Z,14.43
2024-01-29T05:23:57.716Z,12.70
2024-01-29T05:26:25.760Z,7.22
2024-01-29T05:28:53.531Z,14.02
2024-01-29T05:31:21.337Z,14.93
2024-01-29T05:33:50.685Z,8.93
2024-01-29T05:36:18.537Z,13.30
2024-01-29T05:38:46.377Z,13.40
2024-01-29T05:41:14.142Z,14.55
2024-01-29T05:43:41.949Z,17.42
2024-01-29T05:46:10.039Z,12.63
2024-01-29T05:48:38.141Z,16.75
2024-01-29T05:51:07.431Z,12.48
2024-01-29T05:53:35.474Z,19.42
2024-01-29T05:56:06.268Z,13.93
2024-01-29T05:58:35.891Z,17.30
2024-01-29T06:01:04.171Z,14.75
2024-01-29T06:03:32.078Z,14.52
2024-01-29T06:06:00.181Z,16.27
2024-01-29T06:08:29.364Z,12.75
2024-01-29T06:10:57.404Z,14.93
2024-01-29T06:13:25.908Z,16.05
2024-01-29T06:15:54.180Z,13.60
2024-01-29T06:18:22.027Z,14.32
2024-01-29T06:20:50.398Z,13.48
2024-01-29T06:23:18.807Z,13.82
2024-01-29T06:25:48.102Z,13.38
2024-01-29T06:28:16.085Z,14.27
2024-01-29T06:30:44.255Z,13.95
2024-01-29T06:33:12.415Z,15.65
2024-01-29T06:35:40.455Z,15.55
2024-01-29T06:38:08.785Z,12.60
2024-01-29T06:40:36.717Z,15.77
2024-01-29T06:43:06.005Z,17.73
2024-01-29T06:45:34.009Z,16.90
2024-01-29T06:48:01.829Z,15.73
2024-01-29T06:50:30.116Z,17.38
2024-01-29T06:52:57.855Z,16.83
2024-01-29T06:55:25.698Z,21.15
2024-01-29T06:57:53.603Z,17.98
2024-01-29T07:00:23.126Z,16.45
2024-01-29T07:02:51.207Z,20.67
2024-01-29T07:05:19.080Z,17.88
2024-01-29T07:07:46.988Z,19.40
2024-01-29T07:10:15.731Z,17.48
2024-01-29T07:12:46.990Z,15.63
2024-01-29T07:15:16.709Z,12.30
2024-01-29T07:17:46.878Z,17.17
2024-01-29T07:20:15.102Z,23.02
2024-01-29T07:22:43.736Z,11.68
2024-01-29T07:25:12.004Z,16.73
2024-01-29T07:27:39.891Z,16.67
2024-01-29T07:30:08.983Z,17.70
2024-01-29T07:32:37.014Z,16.83
2024-01-29T07:35:07.684Z,15.73
2024-01-29T07:37:35.707Z,23.33
2024-01-29T07:40:04.924Z,21.48
2024-01-29T07:42:33.105Z,19.70
2024-01-29T07:45:00.980Z,18.75
2024-01-29T07:47:28.851Z,20.25
2024-01-29T07:49:56.978Z,21.58
2024-01-29T07:52:27.742Z,17.90
2024-01-29T07:54:55.654Z,16.13
2024-01-29T07:57:23.960Z,16.20
2024-01-29T07:59:51.920Z,18.90
2024-01-29T08:02:20.011Z,18.00
2024-01-29T08:04:47.962Z,16.13
2024-01-29T08:07:16.060Z,21.15
2024-01-29T08:09:46.437Z,17.50
2024-01-29T08:12:14.588Z,29.42
2024-01-29T08:14:42.407Z,18.77
2024-01-29T08:17:10.483Z,29.60
2024-01-29T08:19:38.534Z,17.63
2024-01-29T08:22:08.246Z,20.58
2024-01-29T08:24:36.475Z,16.83
2024-01-29T08:27:07.659Z,19.75
2024-01-29T08:29:35.424Z,21.90
2024-01-29T08:32:03.211Z,17.63
2024-01-29T08:34:31.600Z,19.08
2024-01-29T08:37:00.136Z,15.20
2024-01-29T08:39:28.260Z,30.30
2024-01-29T08:41:56.167Z,23.23
2024-01-29T08:44:26.641Z,14.60
2024-01-29T08:46:54.413Z,15.90
2024-01-29T08:49:22.688Z,15.95
2024-01-29T08:51:50.850Z,15.55
2024-01-29T08:54:18.715Z,14.27
2024-01-29T08:56:46.624Z,15.90
2024-01-29T08:59:16.688Z,12.80
2024-01-29T09:01:46.001Z,14.38
2024-01-29T09:04:14.213Z,14.35
2024-01-29T09:06:42.122Z,14.88
2024-01-29T09:09:10.545Z,15.55
2024-01-29T09:11:38.418Z,15.68
2024-01-29T09:14:06.174Z,14.80
2024-01-29T09:16:34.381Z,13.18
2024-01-29T09:19:03.640Z,16.25
2024-01-29T09:21:35.548Z,14.07
2024-01-29T09:24:03.530Z,14.00
2024-01-29T09:26:31.686Z,14.23
2024-01-29T09:28:59.513Z,15.05
2024-01-29T09:31:27.599Z,15.55
2024-01-29T09:33:55.932Z,13.30
2024-01-29T09:36:25.376Z,15.70
2024-01-29T09:38:53.185Z,15.52
2024-01-29T09:41:21.024Z,17.42
2024-01-29T09:43:55.582Z,15.07
2024-01-29T09:46:24.029Z,15.48
2024-01-29T09:48:52.208Z,14.27
2024-01-29T09:51:22.665Z,16.73
2024-01-29T09:53:56.186Z,16.92
2024-01-29T09:56:24.173Z,14.45
2024-01-29T09:58:52.945Z,16.63
2024-01-29T10:01:23.540Z,18.42
2024-01-29T10:03:52.131Z,18.25
2024-01-29T10:06:20.198Z,15.90
2024-01-29T10:08:49.236Z,17.45
2024-01-29T10:11:19.294Z,16.80
2024-01-29T10:13:48.871Z,17.40
2024-01-29T10:16:17.259Z,14.60
2024-01-29T10:18:45.286Z,17.00
2024-01-29T10:21:13.234Z,18.95
2024-01-29T10:23:41.102Z,20.52
2024-01-29T10:26:16.487Z,19.17
2024-01-29T10:28:45.715Z,24.25
2024-01-29T10:31:13.691Z,18.02
2024-01-29T10:33:41.768Z,19.30
2024-01-29T10:36:13.716Z,15.68
2024-01-29T10:38:43.902Z,19.80
2024-01-29T10:41:11.803Z,17.33
2024-01-29T10:43:40.325Z,19.60
2024-01-29T10:46:11.220Z,17.70
2024-01-29T10:48:41.255Z,14.45
2024-01-29T10:51:09.922Z,18.50
2024-01-29T10:53:39.539Z,21.17
2024-01-29T10:56:08.461Z,16.30
2024-01-29T10:58:37.530Z,18.17
2024-01-29T11:01:06.968Z,19.05
2024-01-29T11:03:37.599Z,17.13
2024-01-29T11:06:11.251Z,21.15
2024-01-29T11:08:42.588Z,16.92
2024-01-29T11:11:13.446Z,13.52
2024-01-29T11:13:41.532Z,18.98
2024-01-29T11:16:09.339Z,13.23
2024-01-29T11:18:38.629Z,15.85
2024-01-29T11:21:12.342Z,17.33
2024-01-29T11:23:43.482Z,17.30
2024-01-29T11:26:15.136Z,14.30
2024-01-29T11:28:43.514Z,17.92
2024-01-29T11:31:12.260Z,14.50
2024-01-29T11:33:42.036Z,18.58
2024-01-29T11:36:14.428Z,15.52
2024-01-29T11:38:42.370Z,14.20
2024-01-29T11:41:11.698Z,16.52
2024-01-29T11:43:44.028Z,17.70
2024-01-29T11:48:43.936Z,16.33
2024-01-29T11:51:11.893Z,14.55
2024-01-29T11:53:39.798Z,16.52
2024-01-29T11:56:10.068Z,18.60
2024-01-29T11:58:37.922Z,15.38
2024-01-29T12:01:06.255Z,16.45
2024-01-29T12:03:36.725Z,14.95
2024-01-29T12:06:07.126Z,13.95
2024-01-29T12:08:36.538Z,15.25
2024-01-29T12:11:05.495Z,14.98
2024-01-29T12:13:33.754Z,14.80
2024-01-29T12:16:03.669Z,12.50
2024-01-29T12:18:32.733Z,13.27
2024-01-29T12:21:01.103Z,15.95
2024-01-29T12:23:30.901Z,10.80
2024-01-29T12:26:00.417Z,11.25
2024-01-29T12:28:29.070Z,12.93
2024-01-29T12:30:59.943Z,12.57
2024-01-29T12:33:31.015Z,10.23
2024-01-29T12:36:00.571Z,12.35
2024-01-29T12:38:29.817Z,10.20
2024-01-29T12:40:58.187Z,10.27
2024-01-29T12:43:31.074Z,11.25
2024-01-29T12:46:06.306Z,12.02
2024-01-29T12:48:34.700Z,13.52
2024-01-29T12:51:03.046Z,10.95
2024-01-29T12:53:32.413Z,12.57
2024-01-29T12:56:00.494Z,13.10
2024-01-29T12:58:28.438Z,10.82
2024-01-29T13:00:56.409Z,9.88
2024-01-29T13:03:25.654Z,12.82
2024-01-29T13:05:55.180Z,9.32
2024-01-29T13:08:24.982Z,9.95
2024-01-29T13:10:54.974Z,10.95
2024-01-29T13:13:23.149Z,14.65
2024-01-29T13:15:52.480Z,10.52
2024-01-29T13:18:20.671Z,13.70
2024-01-29T13:20:48.435Z,14.50
2024-01-29T13:23:16.490Z,11.60
2024-01-29T13:25:45.518Z,9.93
2024-01-29T13:28:15.225Z,11.30
2024-01-29T13:30:44.682Z,11.77
2024-01-29T13:33:12.987Z,8.70
2024-01-29T13:35:40.844Z,9.10
2024-01-29T13:38:08.710Z,10.55
2024-01-29T13:40:36.478Z,9.05
2024-01-29T13:43:04.686Z,14.38
2024-01-29T13:45:34.176Z,9.80
2024-01-29T13:48:02.378Z,9.68
2024-01-29T13:50:31.681Z,9.73
2024-01-29T13:52:59.509Z,8.43
2024-01-29T13:55:27.442Z,12.93
2024-01-29T13:57:55.361Z,10.90
2024-01-29T14:00:26.008Z,8.82
2024-01-29T14:02:55.161Z,8.98
2024-01-29T14:05:25.611Z,10.18
2024-01-29T14:07:53.490Z,8.82
2024-01-29T14:10:21.718Z,11.57
2024-01-29T14:12:49.740Z,8.60
2024-01-29T14:15:18.811Z,10.45
2024-01-29T14:17:46.727Z,11.20
2024-01-29T14:20:16.227Z,10.27
2024-01-29T14:22:44.246Z,8.60
2024-01-29T14:25:12.220Z,8.90
2024-01-29T14:27:40.099Z,8.93
2024-01-29T14:30:09.185Z,9.95
2024-01-29T14:32:37.074Z,10.70
2024-01-29T14:35:07.240Z,8.73
2024-01-29T14:37:39.670Z,6.90
2024-01-29T14:40:11.635Z,7.95
2024-01-29T14:42:39.573Z,8.80
2024-01-29T14:45:08.118Z,7.25
2024-01-29T14:47:36.060Z,9.43
2024-01-29T14:50:04.973Z,10.35
2024-01-29T14:52:32.921Z,9.20
2024-01-29T14:55:02.151Z,8.80
2024-01-29T14:57:30.126Z,9.30
2024-01-29T14:59:58.074Z,10.10
2024-01-29T15:02:25.895Z,8.73
2024-01-29T15:04:54.175Z,10.82
2024-01-29T15:07:22.332Z,13.23
2024-01-29T15:09:51.082Z,8.80
2024-01-29T15:12:21.801Z,8.60
2024-01-29T15:14:51.191Z,8.48
2024-01-29T15:17:19.291Z,8.57
2024-01-29T15:19:47.470Z,7.35
2024-01-29T15:22:17.053Z,9.20
2024-01-29T15:24:46.399Z,8.07
2024-01-29T15:27:14.367Z,11.20
2024-01-29T15:29:43.753Z,10.10
2024-01-29T15:32:11.659Z,8.18
2024-01-29T15:34:44.024Z,13.25
2024-01-29T15:37:12.294Z,11.15
2024-01-29T15:39:40.369Z,9.65
2024-01-29T15:42:14.993Z,8.65
2024-01-29T15:44:45.228Z,8.77
2024-01-29T15:47:14.120Z,8.85
2024-01-29T15:49:44.191Z,11.18
2024-01-29T15:52:12.964Z,7.45
2024-01-29T15:54:40.947Z,9.57
2024-01-29T15:57:11.798Z,9.93
2024-01-29T15:59:39.703Z,8.20
2024-01-29T16:02:10.264Z,6.57
2024-01-29T16:04:39.935Z,7.88
2024-01-29T16:07:08.586Z,8.02
2024-01-29T16:10:07.737Z,8.98
2024-01-29T16:13:08.365Z,9.27
2024-01-29T16:16:16.668Z,10.95
2024-01-29T16:19:41.384Z,12.07
2024-01-29T16:22:39.966Z,13.30
2024-01-29T16:25:50.628Z,13.98
2024-01-29T16:29:12.180Z,13.02
2024-01-29T16:32:08.994Z,16.25
2024-01-29T16:35:24.758Z,15.93
2024-01-29T16:38:24.890Z,15.93
2024-01-29T16:41:17.115Z,17.05
2024-01-29T16:47:57.333Z,13.60
2024-01-29T16:50:34.219Z,14.77
2024-01-29T16:53:45.364Z,15.30
2024-01-29T16:57:03.749Z,19.05
2024-01-29T16:59:49.766Z,17.40
2024-01-29T17:02:40.444Z,20.08
2024-01-29T17:07:20.496Z,21.15
2024-01-29T17:10:42.657Z,16.77
2024-01-29T17:12:46.206Z,17.38
2024-01-29T17:15:42.352Z,14.63
2024-01-29T17:18:42.705Z,20.52
2024-01-29T17:21:58.547Z,20.67
2024-01-29T17:28:09.840Z,16.58
2024-01-29T17:31:07.123Z,18.20
2024-01-29T17:34:09.346Z,19.73
2024-01-29T17:37:12.408Z,23.42
2024-01-29T17:40:04.359Z,17.77
2024-01-29T17:46:05.672Z,18.08
2024-01-29T17:49:01.488Z,15.43
2024-01-29T17:52:15.810Z,24.92
2024-01-29T17:54:53.973Z,17.20
2024-01-29T17:57:55.770Z,15.93
2024-01-29T18:00:48.550Z,15.85
2024-01-29T18:04:04.309Z,12.35
2024-01-29T18:06:32.754Z,19.55
2024-01-29T18:09:02.120Z,26.48
2024-01-29T18:11:30.170Z,22.58
2024-01-29T18:13:58.089Z,19.98
2024-01-29T18:16:26.673Z,20.15
2024-01-29T18:18:54.772Z,19.55
2024-01-29T18:21:23.591Z,18.10
2024-01-29T18:23:51.537Z,22.50
2024-01-29T18:26:20.976Z,19.25
2024-01-29T18:28:48.791Z,19.92
2024-01-29T18:31:18.705Z,21.23
2024-01-29T18:33:46.832Z,19.25
2024-01-29T18:36:18.783Z,26.95
2024-01-29T18:38:49.554Z,25.75
2024-01-29T18:41:18.658Z,39.42
2024-01-29T18:43:47.805Z,36.70
2024-01-29T18:46:17.499Z,31.30
2024-01-29T18:48:49.021Z,22.05
2024-01-29T18:51:26.653Z,27.92
2024-01-29T18:53:56.345Z,23.60
2024-01-29T18:56:25.201Z,29.33
2024-01-29T18:58:54.534Z,27.20
2024-01-29T19:01:23.896Z,23.27
2024-01-29T19:03:52.184Z,27.77
2024-01-29T19:06:20.212Z,19.10
2024-01-29T19:08:48.733Z,35.70
2024-01-29T19:11:16.626Z,24.65
2024-01-29T19:13:44.505Z,22.20
2024-01-29T19:16:13.775Z,21.02
2024-01-29T19:18:41.741Z,37.72
2024-01-29T19:21:11.693Z,35.80
2024-01-29T19:23:39.880Z,29.70
2024-01-29T19:26:07.622Z,36.55
2024-01-29T19:28:35.784Z,23.90
2024-01-29T19:31:05.397Z,22.20
2024-01-29T19:33:35.173Z,23.10
2024-01-29T19:36:04.553Z,19.75
2024-01-29T19:38:33.849Z,16.88
2024-01-29T19:41:02.483Z,12.88
2024-01-29T19:43:30.489Z,17.13
2024-01-29T19:45:59.098Z,14.75
2024-01-29T19:48:27.063Z,12.90
2024-01-29T19:50:56.453Z,18.08
2024-01-29T19:53:24.862Z,15.75
2024-01-29T19:55:52.668Z,18.85
2024-01-29T19:58:20.725Z,32.05
2024-01-29T20:00:49.075Z,25.52
2024-01-29T20:03:17.027Z,31.10
2024-01-29T20:05:44.934Z,22.83
2024-01-29T20:08:14.409Z,26.95
2024-01-29T20:10:42.221Z,23.15
2024-01-29T20:13:10.429Z,20.42
2024-01-29T20:15:38.411Z,20.85
2024-01-29T20:18:07.168Z,21.02
2024-01-29T20:20:35.979Z,23.88
2024-01-29T20:23:05.583Z,24.50
2024-01-29T20:25:34.843Z,25.73
2024-01-29T20:28:03.801Z,24.55
2024-01-29T20:30:32.662Z,33.10
2024-01-29T20:33:00.709Z,25.15
2024-01-29T20:35:28.565Z,24.13
2024-01-29T20:37:56.536Z,26.73
2024-01-29T20:40:24.536Z,22.48
2024-01-29T20:42:53.921Z,18.83
2024-01-29T20:45:21.786Z,23.33
2024-01-29T20:47:50.442Z,25.33
2024-01-29T20:50:18.558Z,19.52
2024-01-29T20:52:48.188Z,14.18
2024-01-29T20:55:20.622Z,34.05
2024-01-29T20:57:49.359Z,36.17
2024-01-29T21:00:20.600Z,29.35
2024-01-29T21:02:48.507Z,16.52
2024-01-29T21:05:21.735Z,27.98
2024-01-29T21:07:50.394Z,28.40
2024-01-29T21:10:18.456Z,26.23
2024-01-29T21:12:47.553Z,24.13
2024-01-29T21:15:15.697Z,27.60
2024-01-29T21:17:45.024Z,27.27
2024-01-29T21:20:14.607Z,27.17
2024-01-29T21:22:42.784Z,21.42
2024-01-29T21:25:11.850Z,23.58
2024-01-29T21:27:40.261Z,22.67
2024-01-29T21:30:10.021Z,22.40
2024-01-29T21:32:39.124Z,25.02
2024-01-29T21:35:09.280Z,20.35
2024-01-29T21:37:37.324Z,31.25
2024-01-29T21:40:06.264Z,30.98
2024-01-29T21:42:34.301Z,23.20
2024-01-29T21:45:02.327Z,26.17
2024-01-29T21:47:30.563Z,22.15
2024-01-29T21:49:58.575Z,23.10
2024-01-29T21:52:28.347Z,18.63
2024-01-29T21:54:56.349Z,7.68
2024-01-29T21:57:24.265Z,12.73
2024-01-29T21:59:52.593Z,21.17
2024-01-29T22:02:20.631Z,15.63
2024-01-29T22:04:48.461Z,18.00
2024-01-29T22:07:16.440Z,9.43
2024-01-29T22:09:47.841Z,14.27
2024-01-29T22:12:15.884Z,16.85
2024-01-29T22:14:43.786Z,15.18
2024-01-29T22:17:11.919Z,14.77
2024-01-29T22:19:39.867Z,16.08
2024-01-29T22:22:07.978Z,29.83
2024-01-29T22:24:35.986Z,24.33
2024-01-29T22:27:06.234Z,26.73
2024-01-29T22:29:34.285Z,9.23
2024-01-29T22:32:02.033Z,19.73
2024-01-29T22:34:30.566Z,12.02
2024-01-29T22:36:58.445Z,14.80
2024-01-29T22:39:26.277Z,17.58
2024-01-29T22:41:56.635Z,23.25
2024-01-29T22:44:25.744Z,21.38
2024-01-29T22:46:53.573Z,16.65
2024-01-29T22:49:21.552Z,21.55
2024-01-29T22:51:49.591Z,17.73
2024-01-29T22:54:17.424Z,23.83
2024-01-29T22:56:45.285Z,21.58
2024-01-29T22:59:13.260Z,12.25
2024-01-29T23:01:43.880Z,23.23
2024-01-29T23:04:11.957Z,20.25
2024-01-29T23:06:39.874Z,18.92
2024-01-29T23:09:07.851Z,18.38
2024-01-29T23:11:35.746Z,16.10
2024-01-29T23:14:03.615Z,14.30
2024-01-29T23:16:31.413Z,14.43
2024-01-29T23:19:00.605Z,14.20
2024-01-29T23:21:28.479Z,18.40
2024-01-29T23:23:56.442Z,22.92
2024-01-29T23:26:25.098Z,13.30
2024-01-29T23:28:53.257Z,16.27
2024-01-29T23:31:21.285Z,13.10
2024-01-29T23:33:49.278Z,12.88
2024-01-29T23:36:18.599Z,11.15
2024-01-29T23:38:46.414Z,15.73
2024-01-29T23:41:14.331Z,15.85
2024-01-29T23:43:42.187Z,15.27
2024-01-29T23:46:10.066Z,15.95
2024-01-29T23:48:38.042Z,18.25
2024-01-29T23:51:06.129Z,15.45
2024-01-29T23:53:35.239Z,14.90
2024-01-29T23:56:02.996Z,15.15
2024-01-29T23:58:31.134Z,16.92
